Time;durP1;ratioP1;P1;durP2;ratioP2;P2;SDS_P1;SDS_P2;PMS_P1;PMS_P2;Temp;Humidity;BMP_temperature;BMP_pressure;BME280_temperature;BME280_humidity;BME280_pressure;Samples;Min_cycle;Max_cycle;Signal;HPM_P1;HPM_P2
2023/05/21 00:02:21;;;;;;;3.53;3.33;;;12.10;99.90;;;;;;4977797;28;20203;-73
2023/05/21 00:04:48;;;;;;;3.65;3.45;;;12.10;99.90;;;;;;4977835;28;20685;-72
2023/05/21 00:07:17;;;;;;;3.20;3.00;;;12.00;99.90;;;;;;4977799;28;20228;-72
2023/05/21 00:09:44;;;;;;;3.75;3.55;;;12.00;99.90;;;;;;4977752;28;20384;-72
2023/05/21 00:12:11;;;;;;;3.13;3.03;;;12.10;99.90;;;;;;5014842;23;20223;-71
2023/05/21 00:14:37;;;;;;;3.33;3.13;;;12.00;99.90;;;;;;4977685;28;20206;-72
2023/05/21 00:17:05;;;;;;;3.45;3.25;;;12.00;99.90;;;;;;4977672;28;20203;-71
2023/05/21 00:19:32;;;;;;;3.50;3.30;;;12.00;99.90;;;;;;4978752;28;20234;-72
2023/05/21 00:22:01;;;;;;;4.32;3.40;;;12.00;99.90;;;;;;4977652;28;20223;-72
2023/05/21 00:24:29;;;;;;;3.25;3.15;;;12.00;99.90;;;;;;4978026;28;20290;-72
2023/05/21 00:26:56;;;;;;;2.70;2.60;;;12.00;99.90;;;;;;4978706;28;20223;-73
2023/05/21 00:29:22;;;;;;;3.60;3.40;;;12.00;99.90;;;;;;4977251;28;20207;-72
2023/05/21 00:31:51;;;;;;;3.60;3.40;;;11.90;99.90;;;;;;4976548;28;20634;-72
2023/05/21 00:34:17;;;;;;;3.60;3.40;;;11.90;99.90;;;;;;4977204;28;20238;-71
2023/05/21 00:36:45;;;;;;;3.75;3.55;;;11.90;99.90;;;;;;4976489;28;20694;-74
2023/05/21 00:39:12;;;;;;;3.60;3.40;;;11.90;99.90;;;;;;4976832;28;20674;-74
2023/05/21 00:41:41;;;;;;;4.00;3.70;;;11.90;99.90;;;;;;4976803;28;20586;-74
2023/05/21 00:44:08;;;;;;;3.95;3.70;;;11.90;99.90;;;;;;4977270;28;20207;-74
2023/05/21 00:46:36;;;;;;;4.13;3.83;;;11.80;99.90;;;;;;4976312;28;20226;-74
2023/05/21 00:49:02;;;;;;;3.58;3.38;;;11.80;99.90;;;;;;4976675;28;20212;-74
2023/05/21 00:51:29;;;;;;;3.72;3.42;;;11.80;99.90;;;;;;4976594;28;20227;-74
2023/05/21 00:53:57;;;;;;;3.70;3.50;;;11.80;99.90;;;;;;4976538;28;20619;-74
2023/05/21 00:56:26;;;;;;;3.72;3.53;;;11.80;99.90;;;;;;4976475;28;20204;-72
2023/05/21 00:58:55;;;;;;;4.45;4.15;;;11.70;99.90;;;;;;4976335;28;20694;-73
2023/05/21 01:01:24;;;;;;;4.10;3.90;;;11.70;99.90;;;;;;4976615;28;20219;-71
2023/05/21 04:49:24;;;;;;;5.32;4.93;;;11.10;99.90;;;;;;5337222;23;20230;-71
2023/05/21 04:51:51;;;;;;;5.07;4.78;;;11.10;99.90;;;;;;4976449;28;20211;-73
2023/05/21 04:54:17;;;;;;;5.40;5.00;;;11.20;99.90;;;;;;4976664;28;20242;-72
2023/05/21 04:56:46;;;;;;;5.60;5.20;;;11.30;99.90;;;;;;4976897;28;20204;-71
2023/05/21 04:59:12;;;;;;;5.15;4.75;;;11.40;99.90;;;;;;4976842;28;20231;-71
2023/05/21 05:01:40;;;;;;;4.93;4.63;;;11.50;99.90;;;;;;4976636;28;20203;-72
2023/05/21 05:04:07;;;;;;;5.57;5.18;;;11.60;99.90;;;;;;4976531;28;20302;-72
2023/05/21 05:06:35;;;;;;;5.80;5.30;;;11.70;99.90;;;;;;4976277;28;20230;-72
2023/05/21 05:09:01;;;;;;;6.00;5.55;;;11.80;99.90;;;;;;4976138;28;20255;-71
2023/05/21 05:11:28;;;;;;;5.95;5.55;;;11.90;99.90;;;;;;4975837;28;20701;-71
2023/05/21 05:13:55;;;;;;;5.28;4.97;;;12.10;99.90;;;;;;4976078;28;20207;-72
2023/05/21 05:16:24;;;;;;;6.22;5.72;;;12.20;99.90;;;;;;4976111;28;20199;-71
2023/05/21 05:18:51;;;;;;;7.60;6.80;;;12.40;99.90;;;;;;4975946;28;20234;-73
2023/05/21 05:21:18;;;;;;;7.43;6.75;;;12.50;99.90;;;;;;4976033;28;20265;-72
2023/05/21 05:23:46;;;;;;;6.90;6.40;;;12.60;99.90;;;;;;4975955;28;20555;-72
2023/05/21 05:26:13;;;;;;;6.95;6.30;;;12.80;99.90;;;;;;4975829;28;20215;-72
2023/05/21 05:28:40;;;;;;;6.57;6.05;;;13.00;99.90;;;;;;4975380;28;20726;-72
2023/05/21 05:31:06;;;;;;;9.68;8.77;;;13.20;99.90;;;;;;4975788;28;20207;-72
2023/05/21 05:33:33;;;;;;;8.40;7.70;;;13.30;99.90;;;;;;4975701;28;20242;-72
2023/05/21 05:36:00;;;;;;;8.07;7.28;;;13.40;99.90;;;;;;4975743;28;20210;-72
2023/05/21 05:38:27;;;;;;;7.15;6.65;;;13.60;99.90;;;;;;4975272;28;20560;-72
2023/05/21 05:40:55;;;;;;;7.25;6.63;;;13.80;99.90;;;;;;4975705;28;20203;-72
2023/05/21 05:43:21;;;;;;;8.48;7.60;;;14.10;99.90;;;;;;4975587;28;20207;-72
2023/05/21 05:45:48;;;;;;;8.35;7.65;;;14.30;99.90;;;;;;4975585;28;20214;-72
2023/05/21 05:48:15;;;;;;;7.97;7.25;;;14.40;99.90;;;;;;4975357;28;20227;-72
2023/05/21 05:50:42;;;;;;;7.28;6.65;;;14.60;99.90;;;;;;4975284;28;20219;-72
2023/05/21 05:53:09;;;;;;;7.68;6.95;;;14.70;99.90;;;;;;4975870;28;20215;-72
2023/05/21 05:55:35;;;;;;;10.60;9.60;;;14.90;99.90;;;;;;4975346;28;20214;-72
2023/05/21 05:58:03;;;;;;;9.73;8.70;;;15.00;99.90;;;;;;4975419;28;20207;-72
2023/05/21 06:00:30;;;;;;;9.00;8.20;;;15.10;99.90;;;;;;4975273;28;20210;-72
2023/05/21 06:02:57;;;;;;;8.32;7.63;;;15.20;99.90;;;;;;4975229;28;20238;-73
2023/05/21 06:05:24;;;;;;;7.95;7.25;;;15.40;99.90;;;;;;4975195;28;20207;-73
2023/05/21 06:07:50;;;;;;;7.88;7.28;;;15.50;99.90;;;;;;4975013;28;20609;-73
2023/05/21 06:10:19;;;;;;;7.63;7.03;;;15.70;99.90;;;;;;4975118;28;20207;-72
2023/05/21 06:12:46;;;;;;;8.02;7.32;;;15.80;99.90;;;;;;4975019;28;20203;-72
2023/05/21 06:15:15;;;;;;;7.40;6.80;;;16.00;99.90;;;;;;4975046;28;20214;-72
2023/05/21 06:17:42;;;;;;;7.55;6.93;;;16.20;99.90;;;;;;4975019;28;20225;-72
2023/05/21 06:20:09;;;;;;;8.27;7.53;;;16.30;99.90;;;;;;4974574;28;20223;-72
2023/05/21 06:22:36;;;;;;;8.63;7.90;;;16.40;99.90;;;;;;4974893;28;20262;-73
2023/05/21 06:25:03;;;;;;;9.07;8.18;;;16.40;99.90;;;;;;4974817;28;20242;-72
2023/05/21 06:27:30;;;;;;;9.32;8.43;;;16.50;99.90;;;;;;4974719;28;20227;-72
2023/05/21 06:29:57;;;;;;;10.45;9.45;;;16.60;99.90;;;;;;4974738;28;20226;-72
2023/05/21 06:32:25;;;;;;;12.25;11.05;;;16.80;99.90;;;;;;4974573;28;20566;-73
2023/05/21 06:34:52;;;;;;;11.95;10.10;;;17.10;99.90;;;;;;4974800;28;20548;-73
2023/05/21 06:37:20;;;;;;;10.15;8.73;;;17.50;99.90;;;;;;4975340;28;20211;-72
2023/05/21 06:39:47;;;;;;;11.50;10.30;;;17.80;99.90;;;;;;4974993;28;20258;-73
2023/05/21 06:42:13;;;;;;;10.65;9.55;;;18.20;99.90;;;;;;4997325;23;20238;-74
2023/05/21 06:44:40;;;;;;;10.90;9.88;;;18.60;99.90;;;;;;4974719;28;20211;-74
2023/05/21 06:47:07;;;;;;;8.88;8.07;;;19.00;99.90;;;;;;4974899;28;20218;-74
2023/05/21 06:49:35;;;;;;;8.90;8.10;;;19.40;99.90;;;;;;4974685;28;20207;-73
2023/05/21 06:52:02;;;;;;;9.85;8.70;;;19.90;99.90;;;;;;4974628;28;20588;-73
2023/05/21 06:54:28;;;;;;;8.38;7.55;;;20.50;99.90;;;;;;4974300;28;20203;-73
2023/05/21 06:56:55;;;;;;;7.65;7.05;;;21.30;99.90;;;;;;4975348;28;20593;-74
2023/05/21 06:59:22;;;;;;;8.73;7.93;;;22.30;99.90;;;;;;4974496;28;20210;-74
2023/05/21 07:01:48;;;;;;;8.48;7.63;;;23.40;99.90;;;;;;4974442;28;20227;-71
2023/05/21 07:04:15;;;;;;;6.78;6.22;;;24.30;99.40;;;;;;4975670;28;20239;-73
2023/05/21 07:06:43;;;;;;;7.68;6.97;;;25.20;86.30;;;;;;4978496;28;20202;-73
2023/05/21 07:09:10;;;;;;;7.82;7.10;;;26.00;73.90;;;;;;4979106;28;20203;-73
2023/05/21 07:11:37;;;;;;;6.97;6.47;;;26.60;62.70;;;;;;4978477;28;20226;-73
2023/05/21 07:14:04;;;;;;;6.50;6.00;;;26.90;56.80;;;;;;4978565;28;20206;-73
2023/05/21 07:16:31;;;;;;;6.22;5.78;;;26.80;55.40;;;;;;4978369;28;20293;-73
2023/05/21 07:18:57;;;;;;;5.95;5.47;;;26.40;55.10;;;;;;4978422;28;20210;-73
2023/05/21 07:21:24;;;;;;;5.57;4.97;;;26.00;57.40;;;;;;4978312;28;20227;-73
2023/05/21 07:23:52;;;;;;;8.20;7.60;;;26.10;58.70;;;;;;4978417;28;20210;-73
2023/05/21 07:26:20;;;;;;;7.28;6.75;;;26.10;57.80;;;;;;4978597;28;20211;-73
2023/05/21 07:28:46;;;;;;;7.50;6.90;;;25.90;55.90;;;;;;4978091;28;20226;-72
2023/05/21 07:31:13;;;;;;;6.40;5.90;;;25.10;60.50;;;;;;4978193;28;20234;-72
2023/05/21 07:33:40;;;;;;;8.73;7.93;;;24.80;63.30;;;;;;4978170;28;20207;-72
2023/05/21 07:36:07;;;;;;;7.18;6.57;;;24.60;63.70;;;;;;4978190;28;20202;-72
2023/05/21 07:38:34;;;;;;;9.20;8.38;;;23.90;74.70;;;;;;4977854;28;20571;-72
2023/05/21 07:41:02;;;;;;;8.10;7.30;;;23.60;71.60;;;;;;4977511;28;20638;-70
2023/05/21 07:43:28;;;;;;;6.75;6.25;;;23.20;77.90;;;;;;4977922;28;20210;-70
2023/05/21 07:45:55;;;;;;;7.13;6.63;;;22.70;86.70;;;;;;4977956;28;20191;-70
2023/05/21 07:48:22;;;;;;;7.15;6.45;;;22.50;93.20;;;;;;4977247;28;20219;-70
2023/05/21 07:50:51;;;;;;;6.90;6.40;;;22.50;93.40;;;;;;4977692;28;20219;-70
2023/05/21 07:53:18;;;;;;;7.20;6.57;;;22.60;93.60;;;;;;4977712;28;20206;-69
2023/05/21 07:55:46;;;;;;;9.07;8.27;;;22.70;90.20;;;;;;4977778;28;20570;-70
2023/05/21 07:58:16;;;;;;;7.82;7.13;;;22.70;88.90;;;;;;4978050;28;20265;-70
2023/05/21 08:00:45;;;;;;;7.25;6.55;;;22.60;93.10;;;;;;4977442;28;20219;-71
2023/05/21 08:03:15;;;;;;;6.68;6.13;;;22.60;96.60;;;;;;4977437;28;20278;-71
2023/05/21 08:05:41;;;;;;;7.40;6.70;;;22.60;90.80;;;;;;4977405;28;20203;-70
2023/05/21 08:08:08;;;;;;;6.25;5.70;;;22.70;95.70;;;;;;4977354;28;20219;-70
2023/05/21 08:10:35;;;;;;;6.10;5.63;;;22.80;95.30;;;;;;4977257;28;20227;-69
2023/05/21 08:13:02;;;;;;;7.85;7.15;;;22.90;96.00;;;;;;4977249;28;20608;-69
2023/05/21 08:15:30;;;;;;;10.00;9.13;;;23.10;87.30;;;;;;4977125;28;20210;-70
2023/05/21 08:17:57;;;;;;;9.07;8.27;;;23.10;86.00;;;;;;4977500;28;20198;-70
2023/05/21 08:20:25;;;;;;;8.10;7.40;;;22.90;89.00;;;;;;4977240;28;20601;-70
2023/05/21 08:22:52;;;;;;;9.05;8.23;;;22.90;91.70;;;;;;4977338;28;20272;-70
2023/05/21 08:25:19;;;;;;;7.80;6.95;;;22.80;90.30;;;;;;4977301;28;20203;-70
2023/05/21 08:27:45;;;;;;;8.38;7.60;;;22.50;93.80;;;;;;4977119;28;20313;-70
2023/05/21 08:30:13;;;;;;;9.00;8.10;;;22.50;93.30;;;;;;4977267;28;20198;-69
2023/05/21 08:32:41;;;;;;;11.15;10.05;;;22.40;93.20;;;;;;4977215;28;20206;-68
2023/05/21 08:35:09;;;;;;;7.85;7.25;;;22.50;92.80;;;;;;4976850;28;20592;-69
2023/05/21 08:37:35;;;;;;;9.82;8.90;;;22.40;96.00;;;;;;4976964;28;20199;-69
2023/05/21 08:40:04;;;;;;;11.70;10.05;;;22.50;95.50;;;;;;4976558;28;20203;-70
2023/05/21 08:42:39;;;;;;;10.23;9.23;;;22.50;93.50;;;;;;4976425;28;20230;-69
2023/05/21 08:45:07;;;;;;;9.57;7.82;;;22.50;92.40;;;;;;4977161;28;20186;-69
2023/05/21 08:47:36;;;;;;;8.07;7.28;;;22.40;94.80;;;;;;4976729;28;20226;-69
2023/05/21 08:50:06;;;;;;;7.45;6.85;;;22.40;95.90;;;;;;4976871;28;20261;-69
2023/05/21 08:52:33;;;;;;;6.80;6.28;;;22.40;88.70;;;;;;4976832;28;20227;-69
2023/05/21 08:55:02;;;;;;;6.30;5.80;;;22.20;86.50;;;;;;4976608;28;20229;-67
2023/05/21 08:57:31;;;;;;;6.50;6.00;;;22.30;91.40;;;;;;4976489;28;20303;-69
2023/05/21 08:59:58;;;;;;;7.30;6.60;;;22.30;85.70;;;;;;4976293;28;20202;-71
2023/05/21 09:02:25;;;;;;;8.23;7.15;;;22.10;88.90;;;;;;4980272;28;20229;-71
2023/05/21 09:04:55;;;;;;;7.15;6.45;;;22.10;90.70;;;;;;4980001;28;20242;-71
2023/05/21 09:07:27;;;;;;;6.18;5.68;;;22.00;94.60;;;;;;4980341;28;20187;-72
2023/05/21 09:09:57;;;;;;;5.57;5.22;;;22.00;92.40;;;;;;4979234;28;20652;-72
2023/05/21 09:12:24;;;;;;;4.88;4.57;;;22.00;85.80;;;;;;4978184;28;20227;-71
2023/05/21 09:14:52;;;;;;;4.25;4.05;;;21.90;78.00;;;;;;4980332;28;20207;-72
2023/05/21 09:17:19;;;;;;;4.75;4.45;;;21.90;78.70;;;;;;4980845;28;20248;-73
2023/05/21 09:20:15;;;;;;;4.30;4.10;;;22.00;81.60;;;;;;4979007;28;20210;-71
2023/05/21 09:22:44;;;;;;;5.07;4.57;;;21.90;77.20;;;;;;4977712;28;20657;-72
2023/05/21 09:25:12;;;;;;;4.32;3.97;;;21.90;73.20;;;;;;4977910;28;20210;-73
2023/05/21 09:27:40;;;;;;;3.90;3.67;;;21.80;74.30;;;;;;4979521;28;20209;-73
2023/05/21 09:30:10;;;;;;;4.05;3.72;;;21.80;70.80;;;;;;4979760;28;20745;-74
2023/05/21 09:32:37;;;;;;;4.68;4.30;;;21.80;76.00;;;;;;4985354;28;20223;-70
2023/05/21 09:35:09;;;;;;;3.60;3.40;;;21.90;71.40;;;;;;4977380;28;20205;-69
2023/05/21 09:37:39;;;;;;;4.03;3.83;;;21.90;71.20;;;;;;4978340;28;20199;-70
2023/05/21 09:40:12;;;;;;;4.22;3.92;;;21.90;67.80;;;;;;4977314;28;20651;-71
2023/05/21 09:42:40;;;;;;;4.68;4.38;;;21.80;67.50;;;;;;4978615;28;20217;-72
2023/05/21 10:34:33;;;;;;;4.55;4.25;;;23.30;68.30;;;;;;5679402;23;20709;-75
2023/05/21 10:37:02;;;;;;;4.55;4.25;;;23.40;71.20;;;;;;4974568;28;20214;-73
2023/05/21 10:39:30;;;;;;;4.18;3.88;;;23.50;70.30;;;;;;4974996;28;20560;-73
2023/05/21 10:42:05;;;;;;;3.90;3.70;;;23.70;69.50;;;;;;4975199;28;20238;-72
2023/05/21 10:44:43;;;;;;;4.47;4.15;;;23.80;68.80;;;;;;4974901;28;20229;-73
2023/05/21 10:47:47;;;;;;;3.83;3.53;;;24.00;68.90;;;;;;4975139;28;20638;-72
2023/05/21 10:50:35;;;;;;;4.03;3.72;;;24.10;63.80;;;;;;4975080;28;20187;-72
2023/05/21 13:59:39;;;;;;;4.13;3.88;;;22.80;82.10;;;;;;5432746;23;20316;-72
2023/05/21 14:02:07;;;;;;;4.05;3.75;;;23.00;77.50;;;;;;4919146;29;20213;-73
2023/05/21 14:04:34;;;;;;;4.38;4.15;;;23.10;77.80;;;;;;4919130;29;20205;-72
2023/05/21 14:07:01;;;;;;;4.07;3.88;;;23.10;77.00;;;;;;4919681;29;20232;-72
2023/05/21 14:09:28;;;;;;;5.32;4.38;;;23.20;77.70;;;;;;4918619;29;20237;-72
2023/05/21 14:11:56;;;;;;;4.60;4.30;;;23.10;78.70;;;;;;4918331;29;20228;-73
2023/05/21 14:14:23;;;;;;;5.20;4.45;;;23.20;85.90;;;;;;4920513;29;20219;-72
2023/05/21 14:16:52;;;;;;;5.18;4.70;;;23.00;79.00;;;;;;4921891;29;20205;-72
2023/05/21 14:19:19;;;;;;;4.47;4.13;;;22.80;72.80;;;;;;4921185;29;20223;-73
2023/05/21 14:21:46;;;;;;;4.18;3.85;;;22.80;68.60;;;;;;4922408;29;20333;-73
2023/05/21 14:24:13;;;;;;;4.00;3.80;;;22.80;70.80;;;;;;4920677;29;20205;-73
2023/05/21 14:26:41;;;;;;;4.35;4.05;;;22.80;66.60;;;;;;4922216;29;20205;-72
2023/05/21 14:29:08;;;;;;;4.47;4.13;;;22.70;65.00;;;;;;4921998;29;20233;-71
2023/05/21 14:31:36;;;;;;;4.40;4.10;;;22.70;64.40;;;;;;4923036;29;20209;-72
2023/05/21 14:34:05;;;;;;;3.83;3.58;;;22.60;64.80;;;;;;4922472;29;20208;-71
2023/05/21 14:36:32;;;;;;;4.07;3.88;;;22.50;65.60;;;;;;4921605;29;20315;-71
2023/05/21 14:39:00;;;;;;;4.43;4.13;;;22.50;64.50;;;;;;4921774;29;20217;-71
2023/05/21 14:41:29;;;;;;;4.03;3.83;;;22.50;65.10;;;;;;4922378;29;20630;-71
2023/05/21 14:43:56;;;;;;;4.30;3.95;;;22.50;65.20;;;;;;4917309;29;20574;-72
2023/05/21 14:46:23;;;;;;;4.18;3.97;;;22.60;62.50;;;;;;4917479;29;20205;-72
2023/05/21 14:48:49;;;;;;;4.53;4.05;;;22.60;60.60;;;;;;4917157;29;20233;-70
2023/05/21 14:51:18;;;;;;;3.40;3.20;;;22.70;58.70;;;;;;4917143;29;20209;-70
2023/05/21 14:53:44;;;;;;;3.50;3.30;;;22.80;58.90;;;;;;4917148;29;20546;-70
2023/05/21 14:56:11;;;;;;;3.42;3.03;;;22.90;56.80;;;;;;4917128;29;20213;-70
2023/05/21 14:58:38;;;;;;;3.28;3.15;;;23.00;57.30;;;;;;4917027;29;20204;-70
2023/05/21 15:01:04;;;;;;;4.13;3.50;;;23.10;55.70;;;;;;4917101;29;20212;-70
2023/05/21 15:03:31;;;;;;;3.67;3.17;;;23.10;58.20;;;;;;4918183;29;20189;-70
2023/05/21 15:05:58;;;;;;;4.00;3.65;;;23.10;57.00;;;;;;4917340;29;20203;-70
2023/05/21 15:08:26;;;;;;;3.65;3.45;;;23.00;61.80;;;;;;4917118;29;20228;-70
2023/05/21 15:10:53;;;;;;;4.20;3.90;;;22.90;66.80;;;;;;4917477;29;20550;-70
2023/05/21 15:13:20;;;;;;;3.65;3.45;;;22.80;69.40;;;;;;4917511;29;20204;-70
2023/05/21 15:15:47;;;;;;;3.22;3.13;;;22.70;74.00;;;;;;4917545;29;20205;-70
2023/05/21 15:18:16;;;;;;;3.60;3.30;;;22.70;79.00;;;;;;4919532;29;20205;-70
2023/05/21 15:20:44;;;;;;;3.50;3.30;;;22.70;79.30;;;;;;4920478;29;20220;-72
2023/05/21 15:23:11;;;;;;;3.58;3.30;;;22.60;82.30;;;;;;4923697;29;20260;-70
2023/05/21 15:25:39;;;;;;;3.28;3.05;;;22.60;81.80;;;;;;4919881;29;20235;-70
2023/05/21 15:28:06;;;;;;;3.30;3.10;;;22.70;83.50;;;;;;4921225;29;20676;-70
2023/05/21 15:30:33;;;;;;;4.28;3.85;;;22.70;81.00;;;;;;4920954;29;20231;-70
2023/05/21 15:33:00;;;;;;;4.28;3.88;;;22.70;83.30;;;;;;4921483;29;20205;-70
2023/05/21 15:35:26;;;;;;;3.70;2.88;;;22.60;87.80;;;;;;4921067;29;20549;-70
2023/05/21 15:37:53;;;;;;;3.75;3.40;;;22.60;84.70;;;;;;4921243;29;20294;-70
2023/05/21 15:40:20;;;;;;;3.72;3.53;;;22.40;85.20;;;;;;4920625;29;20224;-70
2023/05/21 15:42:48;;;;;;;7.28;6.57;;;22.40;85.30;;;;;;4920617;29;20201;-70
2023/05/21 15:45:14;;;;;;;7.70;6.90;;;22.40;86.80;;;;;;4920283;29;20704;-71
2023/05/21 15:47:41;;;;;;;4.85;4.50;;;22.40;85.40;;;;;;4920398;29;20189;-71
2023/05/21 15:50:09;;;;;;;3.40;3.20;;;22.40;85.80;;;;;;4919992;29;20224;-71
2023/05/21 15:52:36;;;;;;;4.07;3.72;;;22.40;84.90;;;;;;4920376;29;20209;-71
2023/05/21 15:55:03;;;;;;;3.47;3.17;;;22.30;84.70;;;;;;4920018;29;20740;-70
2023/05/21 15:57:30;;;;;;;3.17;3.05;;;22.40;84.30;;;;;;4920200;29;20190;-70
2023/05/21 15:59:58;;;;;;;4.13;3.83;;;22.40;86.80;;;;;;4920156;29;20225;-70
2023/05/21 16:02:25;;;;;;;3.80;3.50;;;22.50;83.90;;;;;;4920129;29;20216;-70
2023/05/21 16:04:51;;;;;;;4.05;3.72;;;22.60;81.30;;;;;;4920364;29;20616;-70
2023/05/21 16:07:18;;;;;;;4.00;3.67;;;22.70;81.00;;;;;;4920395;29;20200;-70
2023/05/21 16:09:45;;;;;;;2.85;2.75;;;22.70;77.60;;;;;;4919964;29;20233;-70
2023/05/21 16:12:12;;;;;;;3.50;3.30;;;22.60;80.40;;;;;;4920021;29;20205;-70
2023/05/21 16:14:38;;;;;;;3.55;3.25;;;22.70;79.50;;;;;;4920055;29;20205;-71
2023/05/21 16:17:06;;;;;;;3.78;3.55;;;22.70;79.20;;;;;;4919720;29;20600;-70
2023/05/21 16:19:33;;;;;;;3.70;3.50;;;22.70;77.10;;;;;;4919934;29;20232;-71
2023/05/21 16:22:00;;;;;;;4.22;4.00;;;22.70;75.90;;;;;;4920044;29;20212;-70
2023/05/21 16:24:27;;;;;;;3.65;3.45;;;22.70;74.50;;;;;;4919674;29;20727;-70
2023/05/21 16:26:54;;;;;;;3.08;2.88;;;22.60;76.40;;;;;;4919850;29;20212;-71
2023/05/21 16:29:20;;;;;;;3.30;3.10;;;22.60;75.00;;;;;;4919651;29;20236;-70
2023/05/21 16:31:47;;;;;;;3.03;2.92;;;22.60;74.20;;;;;;4920028;29;20209;-70
2023/05/21 16:34:15;;;;;;;3.20;3.00;;;22.60;72.70;;;;;;4919416;29;20576;-70
2023/05/21 16:36:42;;;;;;;2.88;2.70;;;22.60;73.30;;;;;;4919605;29;20208;-70
2023/05/21 16:39:09;;;;;;;3.60;3.30;;;22.50;70.50;;;;;;4919798;29;20225;-70
2023/05/21 16:41:35;;;;;;;3.30;3.08;;;22.40;72.60;;;;;;4922338;29;20216;-69
2023/05/21 16:44:02;;;;;;;3.17;2.97;;;22.40;75.30;;;;;;4923268;29;20216;-71
2023/05/21 16:46:29;;;;;;;2.83;2.72;;;22.30;65.20;;;;;;4922219;29;20208;-71
2023/05/21 16:48:57;;;;;;;2.70;2.60;;;22.10;53.70;;;;;;4922563;29;20213;-71
2023/05/21 16:51:25;;;;;;;2.40;2.28;;;22.10;51.60;;;;;;4921306;29;20205;-68
2023/05/21 16:53:51;;;;;;;2.30;2.13;;;22.00;49.70;;;;;;4920772;29;20189;-69
2023/05/21 16:56:18;;;;;;;2.28;2.17;;;22.00;48.80;;;;;;4920987;29;20226;-68
2023/05/21 16:58:46;;;;;;;2.00;2.00;;;22.00;47.80;;;;;;4921601;29;20681;-68
2023/05/21 17:01:13;;;;;;;2.60;1.92;;;21.90;47.70;;;;;;4923156;29;20240;-68
2023/05/21 17:03:40;;;;;;;2.10;2.00;;;21.90;48.70;;;;;;4922938;29;20208;-68
2023/05/21 17:06:07;;;;;;;2.00;2.00;;;21.90;48.70;;;;;;4924079;29;20220;-70
2023/05/21 17:08:36;;;;;;;2.10;2.00;;;21.80;49.00;;;;;;4923788;29;20189;-70
2023/05/21 17:11:03;;;;;;;1.65;1.63;;;21.80;50.90;;;;;;4924067;29;20623;-68
2023/05/21 17:13:30;;;;;;;1.90;1.90;;;21.80;50.30;;;;;;4923809;29;20205;-67
2023/05/21 17:15:58;;;;;;;1.95;1.85;;;21.70;50.90;;;;;;4923037;29;20197;-69
2023/05/21 17:18:25;;;;;;;1.80;1.77;;;21.70;53.40;;;;;;4923212;29;20211;-69
2023/05/21 17:20:54;;;;;;;1.67;1.67;;;21.60;55.70;;;;;;4923456;29;20550;-69
2023/05/21 17:23:22;;;;;;;1.60;1.60;;;21.50;58.00;;;;;;4923297;29;20213;-69
2023/05/21 17:25:51;;;;;;;2.05;1.95;;;21.40;59.80;;;;;;4923508;29;20613;-69
2023/05/21 17:28:19;;;;;;;1.67;1.58;;;21.30;59.60;;;;;;4924110;29;20212;-69
2023/05/21 17:30:46;;;;;;;1.50;1.50;;;21.20;57.90;;;;;;4923530;29;20253;-68
2023/05/21 17:33:13;;;;;;;1.60;1.60;;;21.10;63.50;;;;;;4920489;29;20212;-68
2023/05/21 17:35:40;;;;;;;1.50;1.50;;;21.00;67.30;;;;;;4918343;29;20665;-67
2023/05/21 17:38:07;;;;;;;1.50;1.50;;;20.80;68.60;;;;;;4918652;29;20204;-68
2023/05/21 17:40:34;;;;;;;1.60;1.60;;;20.70;68.80;;;;;;4918623;29;20224;-68
2023/05/21 17:43:03;;;;;;;1.60;1.60;;;20.60;68.40;;;;;;4918943;29;20304;-67
2023/05/21 17:45:29;;;;;;;1.70;1.70;;;20.50;71.80;;;;;;4919020;29;20193;-68
2023/05/21 17:47:56;;;;;;;2.15;2.05;;;20.40;74.20;;;;;;4917775;29;20609;-68
2023/05/21 17:50:23;;;;;;;2.72;2.00;;;20.30;76.90;;;;;;4917984;29;20641;-70
2023/05/21 17:52:50;;;;;;;2.13;2.03;;;20.10;78.00;;;;;;4918380;29;20209;-68
2023/05/21 17:55:16;;;;;;;1.58;1.58;;;20.00;79.50;;;;;;4918251;29;20260;-69
2023/05/21 17:57:44;;;;;;;2.22;2.08;;;19.90;83.40;;;;;;4918348;29;20217;-69
2023/05/21 18:00:13;;;;;;;1.88;1.88;;;19.80;87.30;;;;;;4917957;29;20696;-70
2023/05/21 18:02:40;;;;;;;1.60;1.58;;;19.70;90.20;;;;;;4917887;29;20588;-71
2023/05/21 18:05:07;;;;;;;1.70;1.70;;;19.60;91.50;;;;;;4918064;29;20293;-73
2023/05/21 18:07:34;;;;;;;1.98;1.95;;;19.50;93.00;;;;;;4918042;29;20204;-71
2023/05/21 18:10:00;;;;;;;2.00;1.90;;;19.40;94.00;;;;;;4917785;29;20224;-70
2023/05/21 18:12:27;;;;;;;1.95;1.90;;;19.30;96.10;;;;;;4917784;29;20253;-71
2023/05/21 18:14:54;;;;;;;1.70;1.70;;;19.10;97.60;;;;;;4917686;29;20208;-69
2023/05/21 18:17:22;;;;;;;1.75;1.75;;;19.00;99.10;;;;;;4917830;29;20633;-69
2023/05/21 18:19:48;;;;;;;2.10;2.00;;;18.90;99.90;;;;;;4917599;29;20221;-68
2023/05/21 18:22:15;;;;;;;1.95;1.88;;;18.80;99.90;;;;;;4917930;29;20209;-67
2023/05/21 18:24:42;;;;;;;1.63;1.63;;;18.70;99.90;;;;;;4917780;29;20212;-68
2023/05/21 18:27:08;;;;;;;1.90;1.80;;;18.60;99.90;;;;;;4917669;29;20201;-68
2023/05/21 18:29:35;;;;;;;2.78;1.90;;;18.40;99.90;;;;;;4917108;29;20570;-70
2023/05/21 18:32:02;;;;;;;1.75;1.73;;;18.30;99.90;;;;;;4917689;29;20208;-72
2023/05/21 18:34:30;;;;;;;1.85;1.85;;;18.20;99.90;;;;;;4917473;29;20204;-71
2023/05/21 18:36:59;;;;;;;1.83;1.83;;;18.10;99.90;;;;;;4917492;29;20205;-70
2023/05/21 18:39:26;;;;;;;2.13;2.03;;;18.00;99.90;;;;;;4917460;29;20228;-68
2023/05/21 18:41:53;;;;;;;1.90;1.80;;;17.80;99.90;;;;;;4917558;29;20213;-67
2023/05/21 18:44:20;;;;;;;2.30;2.20;;;17.70;99.90;;;;;;4917390;29;20264;-68
2023/05/21 18:46:47;;;;;;;3.88;3.50;;;17.60;99.90;;;;;;4917044;29;20568;-68
2023/05/21 18:49:13;;;;;;;4.28;3.65;;;17.50;99.90;;;;;;4917212;29;20233;-68
2023/05/21 18:51:41;;;;;;;3.95;3.35;;;17.40;99.90;;;;;;4917266;29;20236;-67
2023/05/21 18:54:08;;;;;;;3.70;3.20;;;17.30;99.90;;;;;;4917328;29;20212;-69
2023/05/21 18:56:35;;;;;;;4.45;3.45;;;17.20;99.90;;;;;;4917346;29;20554;-67
2023/05/21 18:59:01;;;;;;;3.75;3.05;;;17.10;99.90;;;;;;4916848;29;20228;-67
2023/05/21 19:01:28;;;;;;;3.70;3.30;;;17.00;99.90;;;;;;4916608;29;20220;-67
2023/05/21 19:03:55;;;;;;;3.40;3.10;;;16.90;99.90;;;;;;4917318;29;20201;-66
2023/05/21 19:06:24;;;;;;;3.55;3.10;;;16.80;99.90;;;;;;4917205;29;20550;-66
2023/05/21 19:08:52;;;;;;;3.25;3.00;;;16.70;99.90;;;;;;4917253;29;20261;-67
2023/05/21 19:11:20;;;;;;;3.40;3.20;;;16.60;99.90;;;;;;4918101;29;20257;-68
2023/05/21 19:13:47;;;;;;;2.50;2.40;;;16.50;99.90;;;;;;4918068;29;20209;-70
2023/05/21 19:16:14;;;;;;;4.05;3.30;;;16.40;99.90;;;;;;4917735;29;20740;-70
2023/05/21 19:18:42;;;;;;;3.17;2.95;;;16.30;99.90;;;;;;4917389;29;20212;-69
2023/05/21 19:21:09;;;;;;;2.90;2.78;;;16.20;99.90;;;;;;4917451;29;20637;-70
2023/05/21 19:23:36;;;;;;;2.50;2.30;;;16.10;99.90;;;;;;4917062;29;20243;-70
2023/05/21 19:26:04;;;;;;;2.30;2.25;;;16.00;99.90;;;;;;4917447;29;20209;-70
2023/05/21 19:28:31;;;;;;;2.97;2.78;;;16.00;99.90;;;;;;4917289;29;20248;-69
2023/05/21 19:30:58;;;;;;;2.72;2.63;;;15.90;99.90;;;;;;4916760;29;20563;-73
2023/05/21 19:33:25;;;;;;;3.65;3.35;;;15.80;99.90;;;;;;4916966;29;20220;-73
2023/05/21 19:35:51;;;;;;;2.65;2.55;;;15.80;99.90;;;;;;4917208;29;20205;-73
2023/05/21 19:38:18;;;;;;;2.60;2.50;;;15.70;99.90;;;;;;4917102;29;20568;-73
2023/05/21 19:40:45;;;;;;;2.78;2.67;;;15.70;99.90;;;;;;4916962;29;20222;-72
2023/05/21 19:43:13;;;;;;;2.88;2.78;;;15.60;99.90;;;;;;4916817;29;20601;-73
2023/05/21 19:45:39;;;;;;;3.03;2.83;;;15.60;99.90;;;;;;4917171;29;20210;-73
2023/05/21 19:48:07;;;;;;;2.63;2.53;;;15.50;99.90;;;;;;4916716;29;20221;-73
2023/05/21 19:50:34;;;;;;;3.10;2.90;;;15.40;99.90;;;;;;4916628;29;20230;-73
2023/05/21 19:53:01;;;;;;;3.22;3.03;;;15.40;99.90;;;;;;4916568;29;20688;-73
2023/05/21 19:55:30;;;;;;;2.47;2.38;;;15.30;99.90;;;;;;4916835;29;20201;-72
2023/05/21 19:57:56;;;;;;;2.80;2.70;;;15.20;99.90;;;;;;4916888;29;20236;-71
2023/05/21 20:00:25;;;;;;;3.10;3.00;;;15.20;99.90;;;;;;4916806;29;20243;-72
2023/05/21 20:02:52;;;;;;;2.78;2.67;;;15.10;99.90;;;;;;4916759;29;20255;-72
2023/05/21 20:05:19;;;;;;;2.90;2.80;;;15.00;99.90;;;;;;4916856;29;20209;-72
2023/05/21 20:07:46;;;;;;;3.53;3.33;;;15.00;99.90;;;;;;4916723;29;20292;-72
2023/05/21 20:10:12;;;;;;;2.55;2.45;;;14.90;99.90;;;;;;4916453;29;20225;-71
2023/05/21 20:12:39;;;;;;;3.03;2.85;;;14.90;99.90;;;;;;4919731;29;20205;-71
2023/05/21 20:15:07;;;;;;;2.53;2.42;;;14.90;99.90;;;;;;4920303;29;20209;-71
2023/05/21 20:17:37;;;;;;;3.28;3.08;;;14.80;99.90;;;;;;4920304;29;20201;-71
2023/05/21 20:20:09;;;;;;;3.85;3.05;;;14.80;99.90;;;;;;4920340;29;20225;-72
2023/05/21 20:22:36;;;;;;;4.13;3.83;;;14.80;99.90;;;;;;4920196;29;20189;-71
2023/05/21 20:25:03;;;;;;;3.47;3.25;;;14.80;99.90;;;;;;4920410;29;20216;-72
2023/05/21 20:27:30;;;;;;;3.45;3.25;;;14.80;99.90;;;;;;4920267;29;20205;-71
2023/05/21 20:29:57;;;;;;;3.30;3.10;;;14.80;99.90;;;;;;4920208;29;20235;-71